sensor_id;sensor_type;location;lat;lon;timestamp;pressure;altitude;pressure_sealevel;temperature
41940;BMP180;23057;48.554;14.454;2023-08-06T00:00:33;92947.00;;;20.60
41940;BMP180;23057;48.554;14.454;2023-08-06T00:03:04;92945.00;;;20.60
41940;BMP180;23057;48.554;14.454;2023-08-06T00:05:35;92947.00;;;20.60
41940;BMP180;23057;48.554;14.454;2023-08-06T00:08:06;92943.00;;;20.60
41940;BMP180;23057;48.554;14.454;2023-08-06T00:10:37;92948.00;;;20.60
41940;BMP180;23057;48.554;14.454;2023-08-06T00:13:11;92944.00;;;20.60
41940;BMP180;23057;48.554;14.454;2023-08-06T00:15:41;92942.00;;;20.60
41940;BMP180;23057;48.554;14.454;2023-08-06T00:18:12;92944.00;;;20.60
41940;BMP180;23057;48.554;14.454;2023-08-06T00:20:43;92947.00;;;20.60
41940;BMP180;23057;48.554;14.454;2023-08-06T00:23:14;92945.00;;;20.50
41940;BMP180;23057;48.554;14.454;2023-08-06T00:25:45;92940.00;;;20.50
41940;BMP180;23057;48.554;14.454;2023-08-06T00:28:15;92933.00;;;20.50
41940;BMP180;23057;48.554;14.454;2023-08-06T00:30:46;92933.00;;;20.50
41940;BMP180;23057;48.554;14.454;2023-08-06T00:33:24;92937.00;;;20.60
41940;BMP180;23057;48.554;14.454;2023-08-06T00:35:54;92931.00;;;20.60
41940;BMP180;23057;48.554;14.454;2023-08-06T00:38:25;92926.00;;;20.60
41940;BMP180;23057;48.554;14.454;2023-08-06T00:40:56;92927.00;;;20.60
41940;BMP180;23057;48.554;14.454;2023-08-06T00:43:27;92924.00;;;20.60
41940;BMP180;23057;48.554;14.454;2023-08-06T00:45:58;92923.00;;;20.50
41940;BMP180;23057;48.554;14.454;2023-08-06T00:48:30;92917.00;;;20.50
41940;BMP180;23057;48.554;14.454;2023-08-06T00:51:01;92915.00;;;20.50
41940;BMP180;23057;48.554;14.454;2023-08-06T00:53:33;92915.00;;;20.50
41940;BMP180;23057;48.554;14.454;2023-08-06T00:56:04;92914.00;;;20.50
41940;BMP180;23057;48.554;14.454;2023-08-06T00:58:36;92910.00;;;20.50
41940;BMP180;23057;48.554;14.454;2023-08-06T01:01:08;92907.00;;;20.50
41940;BMP180;23057;48.554;14.454;2023-08-06T01:03:39;92903.00;;;20.50
41940;BMP180;23057;48.554;14.454;2023-08-06T01:06:10;92901.00;;;20.50
41940;BMP180;23057;48.554;14.454;2023-08-06T01:09:03;92904.00;;;20.60
41940;BMP180;23057;48.554;14.454;2023-08-06T01:12:09;92900.00;;;20.60
41940;BMP180;23057;48.554;14.454;2023-08-06T01:15:16;92895.00;;;20.60
41940;BMP180;23057;48.554;14.454;2023-08-06T01:17:52;92904.00;;;20.60
41940;BMP180;23057;48.554;14.454;2023-08-06T01:20:33;92896.00;;;20.70
41940;BMP180;23057;48.554;14.454;2023-08-06T01:23:04;92900.00;;;20.70
41940;BMP180;23057;48.554;14.454;2023-08-06T01:29:02;92883.00;;;20.80
41940;BMP180;23057;48.554;14.454;2023-08-06T01:31:48;92882.00;;;20.80
41940;BMP180;23057;48.554;14.454;2023-08-06T01:34:24;92884.00;;;20.80
41940;BMP180;23057;48.554;14.454;2023-08-06T01:37:00;92877.00;;;20.80
41940;BMP180;23057;48.554;14.454;2023-08-06T01:39:35;92894.00;;;20.80
41940;BMP180;23057;48.554;14.454;2023-08-06T01:42:07;92877.00;;;20.80
41940;BMP180;23057;48.554;14.454;2023-08-06T01:44:38;92874.00;;;20.80
41940;BMP180;23057;48.554;14.454;2023-08-06T01:47:09;92881.00;;;20.80
41940;BMP180;23057;48.554;14.454;2023-08-06T01:49:40;92879.00;;;20.80
41940;BMP180;23057;48.554;14.454;2023-08-06T01:52:10;92875.00;;;20.80
41940;BMP180;23057;48.554;14.454;2023-08-06T01:54:41;92873.00;;;20.80
41940;BMP180;23057;48.554;14.454;2023-08-06T01:57:12;92871.00;;;20.80
41940;BMP180;23057;48.554;14.454;2023-08-06T01:59:43;92865.00;;;20.70
41940;BMP180;23057;48.554;14.454;2023-08-06T02:02:14;92861.00;;;20.70
41940;BMP180;23057;48.554;14.454;2023-08-06T02:04:44;92860.00;;;20.70
41940;BMP180;23057;48.554;14.454;2023-08-06T02:07:15;92860.00;;;20.70
41940;BMP180;23057;48.554;14.454;2023-08-06T02:09:46;92851.00;;;20.60
41940;BMP180;23057;48.554;14.454;2023-08-06T02:12:17;92855.00;;;20.60
41940;BMP180;23057;48.554;14.454;2023-08-06T02:14:48;92856.00;;;20.60
41940;BMP180;23057;48.554;14.454;2023-08-06T02:17:18;92854.00;;;20.50
41940;BMP180;23057;48.554;14.454;2023-08-06T02:19:49;92845.00;;;20.50
41940;BMP180;23057;48.554;14.454;2023-08-06T02:22:20;92841.00;;;20.50
41940;BMP180;23057;48.554;14.454;2023-08-06T02:24:51;92850.00;;;20.50
41940;BMP180;23057;48.554;14.454;2023-08-06T02:27:22;92845.00;;;20.50
41940;BMP180;23057;48.554;14.454;2023-08-06T02:29:52;92843.00;;;20.50
41940;BMP180;23057;48.554;14.454;2023-08-06T02:32:23;92844.00;;;20.50
41940;BMP180;23057;48.554;14.454;2023-08-06T02:34:54;92841.00;;;20.50
41940;BMP180;23057;48.554;14.454;2023-08-06T02:37:25;92847.00;;;20.40
41940;BMP180;23057;48.554;14.454;2023-08-06T02:39:56;92852.00;;;20.40
41940;BMP180;23057;48.554;14.454;2023-08-06T02:42:27;92838.00;;;20.40
41940;BMP180;23057;48.554;14.454;2023-08-06T02:44:58;92846.00;;;20.40
41940;BMP180;23057;48.554;14.454;2023-08-06T02:47:29;92834.00;;;20.40
41940;BMP180;23057;48.554;14.454;2023-08-06T02:50:00;92830.00;;;20.40
41940;BMP180;23057;48.554;14.454;2023-08-06T02:52:30;92826.00;;;20.40
41940;BMP180;23057;48.554;14.454;2023-08-06T02:55:01;92823.00;;;20.40
41940;BMP180;23057;48.554;14.454;2023-08-06T02:57:32;92825.00;;;20.40
41940;BMP180;23057;48.554;14.454;2023-08-06T03:00:03;92822.00;;;20.40
41940;BMP180;23057;48.554;14.454;2023-08-06T03:02:35;92819.00;;;20.40
41940;BMP180;23057;48.554;14.454;2023-08-06T03:05:06;92818.00;;;20.50
41940;BMP180;23057;48.554;14.454;2023-08-06T03:07:37;92817.00;;;20.40
41940;BMP180;23057;48.554;14.454;2023-08-06T03:10:08;92816.00;;;20.40
41940;BMP180;23057;48.554;14.454;2023-08-06T03:12:39;92824.00;;;20.40
41940;BMP180;23057;48.554;14.454;2023-08-06T03:15:10;92808.00;;;20.40
41940;BMP180;23057;48.554;14.454;2023-08-06T03:17:41;92814.00;;;20.40
41940;BMP180;23057;48.554;14.454;2023-08-06T03:20:12;92820.00;;;20.40
41940;BMP180;23057;48.554;14.454;2023-08-06T03:22:43;92823.00;;;20.40
41940;BMP180;23057;48.554;14.454;2023-08-06T03:25:14;92814.00;;;20.40
41940;BMP180;23057;48.554;14.454;2023-08-06T03:27:44;92814.00;;;20.40
41940;BMP180;23057;48.554;14.454;2023-08-06T03:30:15;92814.00;;;20.30
41940;BMP180;23057;48.554;14.454;2023-08-06T03:32:46;92809.00;;;20.30
41940;BMP180;23057;48.554;14.454;2023-08-06T03:35:17;92811.00;;;20.30
41940;BMP180;23057;48.554;14.454;2023-08-06T03:37:48;92810.00;;;20.30
41940;BMP180;23057;48.554;14.454;2023-08-06T03:40:20;92806.00;;;20.30
41940;BMP180;23057;48.554;14.454;2023-08-06T03:42:51;92801.00;;;20.30
41940;BMP180;23057;48.554;14.454;2023-08-06T03:45:22;92796.00;;;20.30
41940;BMP180;23057;48.554;14.454;2023-08-06T03:47:52;92795.00;;;20.30
41940;BMP180;23057;48.554;14.454;2023-08-06T03:50:23;92801.00;;;20.30
41940;BMP180;23057;48.554;14.454;2023-08-06T03:52:54;92801.00;;;20.30
41940;BMP180;23057;48.554;14.454;2023-08-06T03:55:25;92795.00;;;20.30
41940;BMP180;23057;48.554;14.454;2023-08-06T03:57:56;92800.00;;;20.30
41940;BMP180;23057;48.554;14.454;2023-08-06T04:00:26;92800.00;;;20.30
41940;BMP180;23057;48.554;14.454;2023-08-06T04:02:57;92803.00;;;20.30
41940;BMP180;23057;48.554;14.454;2023-08-06T04:05:31;92791.00;;;20.30
41940;BMP180;23057;48.554;14.454;2023-08-06T04:08:03;92789.00;;;20.30
41940;BMP180;23057;48.554;14.454;2023-08-06T04:10:34;92801.00;;;20.30
41940;BMP180;23057;48.554;14.454;2023-08-06T04:13:05;92800.00;;;20.30
41940;BMP180;23057;48.554;14.454;2023-08-06T04:15:36;92791.00;;;20.40
41940;BMP180;23057;48.554;14.454;2023-08-06T04:18:06;92791.00;;;20.40
41940;BMP180;23057;48.554;14.454;2023-08-06T04:20:47;92789.00;;;20.40
41940;BMP180;23057;48.554;14.454;2023-08-06T04:23:19;92788.00;;;20.50
41940;BMP180;23057;48.554;14.454;2023-08-06T04:25:50;92779.00;;;20.50
41940;BMP180;23057;48.554;14.454;2023-08-06T04:28:21;92776.00;;;20.50
41940;BMP180;23057;48.554;14.454;2023-08-06T04:30:52;92780.00;;;20.50
41940;BMP180;23057;48.554;14.454;2023-08-06T04:33:24;92779.00;;;20.50
41940;BMP180;23057;48.554;14.454;2023-08-06T04:35:55;92776.00;;;20.50
41940;BMP180;23057;48.554;14.454;2023-08-06T04:38:26;92766.00;;;20.50
41940;BMP180;23057;48.554;14.454;2023-08-06T04:40:58;92767.00;;;20.50
41940;BMP180;23057;48.554;14.454;2023-08-06T04:43:29;92766.00;;;20.50
41940;BMP180;23057;48.554;14.454;2023-08-06T04:46:00;92766.00;;;20.50
41940;BMP180;23057;48.554;14.454;2023-08-06T04:48:31;92774.00;;;20.40
41940;BMP180;23057;48.554;14.454;2023-08-06T04:51:02;92771.00;;;20.40
41940;BMP180;23057;48.554;14.454;2023-08-06T04:53:32;92775.00;;;20.40
41940;BMP180;23057;48.554;14.454;2023-08-06T04:56:03;92778.00;;;20.50
41940;BMP180;23057;48.554;14.454;2023-08-06T04:58:34;92772.00;;;20.40
41940;BMP180;23057;48.554;14.454;2023-08-06T05:01:05;92778.00;;;20.40
41940;BMP180;23057;48.554;14.454;2023-08-06T05:03:36;92775.00;;;20.40
41940;BMP180;23057;48.554;14.454;2023-08-06T05:06:07;92772.00;;;20.40
41940;BMP180;23057;48.554;14.454;2023-08-06T05:08:38;92772.00;;;20.40
41940;BMP180;23057;48.554;14.454;2023-08-06T05:11:09;92772.00;;;20.40
41940;BMP180;23057;48.554;14.454;2023-08-06T05:13:40;92780.00;;;20.40
41940;BMP180;23057;48.554;14.454;2023-08-06T05:16:11;92777.00;;;20.40
41940;BMP180;23057;48.554;14.454;2023-08-06T05:18:42;92771.00;;;20.40
41940;BMP180;23057;48.554;14.454;2023-08-06T05:21:12;92770.00;;;20.40
41940;BMP180;23057;48.554;14.454;2023-08-06T05:23:43;92777.00;;;20.30
41940;BMP180;23057;48.554;14.454;2023-08-06T05:26:14;92780.00;;;20.30
41940;BMP180;23057;48.554;14.454;2023-08-06T05:28:48;92776.00;;;20.30
41940;BMP180;23057;48.554;14.454;2023-08-06T05:31:19;92783.00;;;20.30
41940;BMP180;23057;48.554;14.454;2023-08-06T05:33:50;92781.00;;;20.30
41940;BMP180;23057;48.554;14.454;2023-08-06T05:36:21;92775.00;;;20.30
41940;BMP180;23057;48.554;14.454;2023-08-06T05:38:52;92776.00;;;20.30
41940;BMP180;23057;48.554;14.454;2023-08-06T05:41:24;92770.00;;;20.30
41940;BMP180;23057;48.554;14.454;2023-08-06T05:43:55;92773.00;;;20.30
41940;BMP180;23057;48.554;14.454;2023-08-06T05:46:26;92775.00;;;20.40
41940;BMP180;23057;48.554;14.454;2023-08-06T05:48:57;92769.00;;;20.40
41940;BMP180;23057;48.554;14.454;2023-08-06T05:51:27;92775.00;;;20.40
41940;BMP180;23057;48.554;14.454;2023-08-06T05:53:58;92771.00;;;20.40
41940;BMP180;23057;48.554;14.454;2023-08-06T05:56:29;92776.00;;;20.40
41940;BMP180;23057;48.554;14.454;2023-08-06T05:59:00;92771.00;;;20.50
41940;BMP180;23057;48.554;14.454;2023-08-06T06:01:31;92774.00;;;20.50
41940;BMP180;23057;48.554;14.454;2023-08-06T06:04:02;92773.00;;;20.60
41940;BMP180;23057;48.554;14.454;2023-08-06T06:06:33;92773.00;;;20.70
41940;BMP180;23057;48.554;14.454;2023-08-06T06:09:03;92771.00;;;20.70
41940;BMP180;23057;48.554;14.454;2023-08-06T06:11:34;92777.00;;;20.80
41940;BMP180;23057;48.554;14.454;2023-08-06T06:14:05;92766.00;;;20.90
41940;BMP180;23057;48.554;14.454;2023-08-06T06:16:36;92768.00;;;21.00
41940;BMP180;23057;48.554;14.454;2023-08-06T06:19:06;92771.00;;;21.10
41940;BMP180;23057;48.554;14.454;2023-08-06T06:21:38;92777.00;;;21.20
41940;BMP180;23057;48.554;14.454;2023-08-06T06:24:09;92775.00;;;21.20
41940;BMP180;23057;48.554;14.454;2023-08-06T06:26:40;92778.00;;;21.30
41940;BMP180;23057;48.554;14.454;2023-08-06T06:29:11;92779.00;;;21.30
41940;BMP180;23057;48.554;14.454;2023-08-06T06:31:41;92781.00;;;21.30
41940;BMP180;23057;48.554;14.454;2023-08-06T06:34:12;92778.00;;;21.20
41940;BMP180;23057;48.554;14.454;2023-08-06T06:36:43;92781.00;;;21.20
41940;BMP180;23057;48.554;14.454;2023-08-06T06:39:14;92770.00;;;21.30
41940;BMP180;23057;48.554;14.454;2023-08-06T06:41:46;92770.00;;;21.30
41940;BMP180;23057;48.554;14.454;2023-08-06T06:44:16;92768.00;;;21.40
41940;BMP180;23057;48.554;14.454;2023-08-06T06:46:47;92768.00;;;21.30
41940;BMP180;23057;48.554;14.454;2023-08-06T06:49:18;92769.00;;;21.30
41940;BMP180;23057;48.554;14.454;2023-08-06T06:51:49;92775.00;;;21.30
41940;BMP180;23057;48.554;14.454;2023-08-06T06:54:21;92773.00;;;21.30
41940;BMP180;23057;48.554;14.454;2023-08-06T06:56:52;92778.00;;;21.30
41940;BMP180;23057;48.554;14.454;2023-08-06T06:59:23;92786.00;;;21.30
41940;BMP180;23057;48.554;14.454;2023-08-06T07:01:53;92777.00;;;21.30
41940;BMP180;23057;48.554;14.454;2023-08-06T07:04:24;92778.00;;;21.30
41940;BMP180;23057;48.554;14.454;2023-08-06T07:06:55;92786.00;;;21.30
41940;BMP180;23057;48.554;14.454;2023-08-06T07:09:26;92796.00;;;21.40
41940;BMP180;23057;48.554;14.454;2023-08-06T07:11:57;92797.00;;;21.40
41940;BMP180;23057;48.554;14.454;2023-08-06T07:14:28;92796.00;;;21.40
41940;BMP180;23057;48.554;14.454;2023-08-06T07:16:59;92793.00;;;21.40
41940;BMP180;23057;48.554;14.454;2023-08-06T07:19:30;92792.00;;;21.50
41940;BMP180;23057;48.554;14.454;2023-08-06T07:22:01;92808.00;;;21.50
41940;BMP180;23057;48.554;14.454;2023-08-06T07:24:32;92805.00;;;21.60
41940;BMP180;23057;48.554;14.454;2023-08-06T07:27:03;92802.00;;;21.60
41940;BMP180;23057;48.554;14.454;2023-08-06T07:29:34;92795.00;;;21.60
41940;BMP180;23057;48.554;14.454;2023-08-06T07:32:07;92796.00;;;21.60
41940;BMP180;23057;48.554;14.454;2023-08-06T07:34:38;92799.00;;;21.60
41940;BMP180;23057;48.554;14.454;2023-08-06T07:37:08;92798.00;;;21.60
41940;BMP180;23057;48.554;14.454;2023-08-06T07:39:39;92795.00;;;21.60
41940;BMP180;23057;48.554;14.454;2023-08-06T07:42:12;92801.00;;;21.60
41940;BMP180;23057;48.554;14.454;2023-08-06T07:44:42;92806.00;;;21.60
41940;BMP180;23057;48.554;14.454;2023-08-06T07:47:13;92805.00;;;21.60
41940;BMP180;23057;48.554;14.454;2023-08-06T07:49:44;92811.00;;;21.50
41940;BMP180;23057;48.554;14.454;2023-08-06T07:52:15;92805.00;;;21.50
41940;BMP180;23057;48.554;14.454;2023-08-06T07:54:46;92805.00;;;21.50
41940;BMP180;23057;48.554;14.454;2023-08-06T07:57:17;92805.00;;;21.50
41940;BMP180;23057;48.554;14.454;2023-08-06T07:59:48;92795.00;;;21.50
41940;BMP180;23057;48.554;14.454;2023-08-06T08:02:19;92806.00;;;21.50
41940;BMP180;23057;48.554;14.454;2023-08-06T08:04:50;92799.00;;;21.50
41940;BMP180;23057;48.554;14.454;2023-08-06T08:07:21;92798.00;;;21.40
41940;BMP180;23057;48.554;14.454;2023-08-06T08:09:52;92800.00;;;21.40
41940;BMP180;23057;48.554;14.454;2023-08-06T08:12:23;92781.00;;;21.40
41940;BMP180;23057;48.554;14.454;2023-08-06T08:14:53;92787.00;;;21.50
41940;BMP180;23057;48.554;14.454;2023-08-06T08:17:24;92793.00;;;21.50
41940;BMP180;23057;48.554;14.454;2023-08-06T08:19:55;92789.00;;;21.50
41940;BMP180;23057;48.554;14.454;2023-08-06T08:22:26;92792.00;;;21.50
41940;BMP180;23057;48.554;14.454;2023-08-06T08:24:57;92786.00;;;21.50
41940;BMP180;23057;48.554;14.454;2023-08-06T08:27:27;92778.00;;;21.60
41940;BMP180;23057;48.554;14.454;2023-08-06T08:29:58;92779.00;;;21.50
41940;BMP180;23057;48.554;14.454;2023-08-06T08:32:29;92770.00;;;21.50
41940;BMP180;23057;48.554;14.454;2023-08-06T08:35:00;92777.00;;;21.50
41940;BMP180;23057;48.554;14.454;2023-08-06T08:37:31;92768.00;;;21.50
41940;BMP180;23057;48.554;14.454;2023-08-06T08:40:02;92772.00;;;21.60
41940;BMP180;23057;48.554;14.454;2023-08-06T08:42:35;92767.00;;;21.70
41940;BMP180;23057;48.554;14.454;2023-08-06T08:45:13;92770.00;;;21.70
41940;BMP180;23057;48.554;14.454;2023-08-06T08:47:45;92767.00;;;21.70
41940;BMP180;23057;48.554;14.454;2023-08-06T08:50:18;92757.00;;;21.80
41940;BMP180;23057;48.554;14.454;2023-08-06T08:52:50;92753.00;;;21.80
41940;BMP180;23057;48.554;14.454;2023-08-06T08:55:23;92751.00;;;21.90
41940;BMP180;23057;48.554;14.454;2023-08-06T08:57:54;92754.00;;;21.90
41940;BMP180;23057;48.554;14.454;2023-08-06T09:00:26;92756.00;;;21.90
41940;BMP180;23057;48.554;14.454;2023-08-06T09:02:59;92761.00;;;21.90
41940;BMP180;23057;48.554;14.454;2023-08-06T09:05:33;92755.00;;;21.80
41940;BMP180;23057;48.554;14.454;2023-08-06T09:08:05;92747.00;;;21.80
41940;BMP180;23057;48.554;14.454;2023-08-06T09:10:37;92751.00;;;21.80
41940;BMP180;23057;48.554;14.454;2023-08-06T09:13:11;92754.00;;;21.90
41940;BMP180;23057;48.554;14.454;2023-08-06T09:15:42;92752.00;;;21.80
41940;BMP180;23057;48.554;14.454;2023-08-06T09:18:14;92761.00;;;21.70
41940;BMP180;23057;48.554;14.454;2023-08-06T09:20:45;92758.00;;;21.60
41940;BMP180;23057;48.554;14.454;2023-08-06T09:23:16;92762.00;;;21.40
41940;BMP180;23057;48.554;14.454;2023-08-06T09:25:47;92758.00;;;21.30
41940;BMP180;23057;48.554;14.454;2023-08-06T09:28:18;92763.00;;;21.20
41940;BMP180;23057;48.554;14.454;2023-08-06T09:30:48;92762.00;;;21.20
41940;BMP180;23057;48.554;14.454;2023-08-06T09:33:22;92772.00;;;21.10
41940;BMP180;23057;48.554;14.454;2023-08-06T09:35:53;92767.00;;;21.20
41940;BMP180;23057;48.554;14.454;2023-08-06T09:38:37;92752.00;;;21.20
41940;BMP180;23057;48.554;14.454;2023-08-06T09:41:10;92747.00;;;21.20
41940;BMP180;23057;48.554;14.454;2023-08-06T09:43:43;92743.00;;;21.30
41940;BMP180;23057;48.554;14.454;2023-08-06T09:46:14;92739.00;;;21.40
41940;BMP180;23057;48.554;14.454;2023-08-06T09:48:48;92736.00;;;21.30
41940;BMP180;23057;48.554;14.454;2023-08-06T09:51:20;92745.00;;;21.30
41940;BMP180;23057;48.554;14.454;2023-08-06T09:53:52;92751.00;;;21.40
41940;BMP180;23057;48.554;14.454;2023-08-06T09:56:23;92745.00;;;21.50
41940;BMP180;23057;48.554;14.454;2023-08-06T09:58:57;92748.00;;;21.50
41940;BMP180;23057;48.554;14.454;2023-08-06T10:01:28;92748.00;;;21.60
41940;BMP180;23057;48.554;14.454;2023-08-06T10:04:01;92752.00;;;21.60
41940;BMP180;23057;48.554;14.454;2023-08-06T10:06:37;92750.00;;;21.70
41940;BMP180;23057;48.554;14.454;2023-08-06T10:09:09;92754.00;;;21.70
41940;BMP180;23057;48.554;14.454;2023-08-06T10:11:42;92759.00;;;21.70
41940;BMP180;23057;48.554;14.454;2023-08-06T10:14:24;92753.00;;;21.80
41940;BMP180;23057;48.554;14.454;2023-08-06T10:16:59;92767.00;;;21.90
41940;BMP180;23057;48.554;14.454;2023-08-06T10:19:32;92762.00;;;22.00
41940;BMP180;23057;48.554;14.454;2023-08-06T10:22:17;92770.00;;;22.10
41940;BMP180;23057;48.554;14.454;2023-08-06T10:24:56;92758.00;;;22.10
41940;BMP180;23057;48.554;14.454;2023-08-06T10:33:02;92762.00;;;22.10
41940;BMP180;23057;48.554;14.454;2023-08-06T10:35:47;92773.00;;;22.10
41940;BMP180;23057;48.554;14.454;2023-08-06T10:38:25;92762.00;;;22.00
41940;BMP180;23057;48.554;14.454;2023-08-06T10:43:35;92762.00;;;22.00
41940;BMP180;23057;48.554;14.454;2023-08-06T10:46:26;92753.00;;;21.90
41940;BMP180;23057;48.554;14.454;2023-08-06T10:48:58;92746.00;;;21.90
41940;BMP180;23057;48.554;14.454;2023-08-06T10:51:30;92748.00;;;21.80
41940;BMP180;23057;48.554;14.454;2023-08-06T10:54:02;92747.00;;;21.90
41940;BMP180;23057;48.554;14.454;2023-08-06T10:56:40;92745.00;;;22.00
41940;BMP180;23057;48.554;14.454;2023-08-06T10:59:15;92745.00;;;22.10
41940;BMP180;23057;48.554;14.454;2023-08-06T11:01:46;92744.00;;;22.20
41940;BMP180;23057;48.554;14.454;2023-08-06T11:04:17;92743.00;;;22.30
41940;BMP180;23057;48.554;14.454;2023-08-06T11:06:52;92745.00;;;22.50
41940;BMP180;23057;48.554;14.454;2023-08-06T11:09:23;92750.00;;;22.60
41940;BMP180;23057;48.554;14.454;2023-08-06T11:11:54;92745.00;;;22.70
41940;BMP180;23057;48.554;14.454;2023-08-06T11:14:25;92735.00;;;22.80
41940;BMP180;23057;48.554;14.454;2023-08-06T11:16:56;92737.00;;;22.90
41940;BMP180;23057;48.554;14.454;2023-08-06T11:19:27;92734.00;;;23.00
41940;BMP180;23057;48.554;14.454;2023-08-06T11:21:58;92734.00;;;23.20
41940;BMP180;23057;48.554;14.454;2023-08-06T11:24:29;92734.00;;;23.40
41940;BMP180;23057;48.554;14.454;2023-08-06T11:27:00;92730.00;;;23.60
41940;BMP180;23057;48.554;14.454;2023-08-06T11:29:38;92735.00;;;23.70
41940;BMP180;23057;48.554;14.454;2023-08-06T11:32:09;92730.00;;;23.70
41940;BMP180;23057;48.554;14.454;2023-08-06T11:34:41;92729.00;;;23.70
41940;BMP180;23057;48.554;14.454;2023-08-06T11:37:13;92726.00;;;23.80
41940;BMP180;23057;48.554;14.454;2023-08-06T11:39:47;92714.00;;;23.80
41940;BMP180;23057;48.554;14.454;2023-08-06T11:42:20;92738.00;;;23.90
41940;BMP180;23057;48.554;14.454;2023-08-06T11:44:51;92731.00;;;23.90
41940;BMP180;23057;48.554;14.454;2023-08-06T11:47:22;92733.00;;;23.80
41940;BMP180;23057;48.554;14.454;2023-08-06T11:49:53;92733.00;;;23.60
41940;BMP180;23057;48.554;14.454;2023-08-06T11:52:25;92732.00;;;23.40
41940;BMP180;23057;48.554;14.454;2023-08-06T11:55:05;92728.00;;;23.30
41940;BMP180;23057;48.554;14.454;2023-08-06T11:57:39;92736.00;;;23.20
41940;BMP180;23057;48.554;14.454;2023-08-06T12:00:15;92738.00;;;23.20
41940;BMP180;23057;48.554;14.454;2023-08-06T12:02:49;92739.00;;;23.20
41940;BMP180;23057;48.554;14.454;2023-08-06T12:05:28;92744.00;;;23.10
41940;BMP180;23057;48.554;14.454;2023-08-06T12:08:02;92745.00;;;23.00
41940;BMP180;23057;48.554;14.454;2023-08-06T12:10:34;92745.00;;;23.10
41940;BMP180;23057;48.554;14.454;2023-08-06T12:13:04;92744.00;;;23.00
41940;BMP180;23057;48.554;14.454;2023-08-06T12:15:35;92743.00;;;23.00
41940;BMP180;23057;48.554;14.454;2023-08-06T12:18:06;92740.00;;;22.90
41940;BMP180;23057;48.554;14.454;2023-08-06T12:20:38;92746.00;;;22.90
41940;BMP180;23057;48.554;14.454;2023-08-06T12:23:09;92749.00;;;22.90
41940;BMP180;23057;48.554;14.454;2023-08-06T12:25:41;92753.00;;;23.00
41940;BMP180;23057;48.554;14.454;2023-08-06T12:28:12;92755.00;;;23.00
41940;BMP180;23057;48.554;14.454;2023-08-06T12:30:43;92754.00;;;23.00
41940;BMP180;23057;48.554;14.454;2023-08-06T12:33:15;92764.00;;;23.10
41940;BMP180;23057;48.554;14.454;2023-08-06T12:35:46;92757.00;;;23.20
41940;BMP180;23057;48.554;14.454;2023-08-06T12:38:17;92776.00;;;23.30
41940;BMP180;23057;48.554;14.454;2023-08-06T12:40:48;92763.00;;;23.30
41940;BMP180;23057;48.554;14.454;2023-08-06T12:43:19;92771.00;;;23.20
41940;BMP180;23057;48.554;14.454;2023-08-06T12:45:49;92775.00;;;23.00
41940;BMP180;23057;48.554;14.454;2023-08-06T12:48:20;92785.00;;;22.90
41940;BMP180;23057;48.554;14.454;2023-08-06T12:50:51;92777.00;;;22.70
41940;BMP180;23057;48.554;14.454;2023-08-06T12:53:22;92792.00;;;22.50
41940;BMP180;23057;48.554;14.454;2023-08-06T12:55:53;92780.00;;;22.30
41940;BMP180;23057;48.554;14.454;2023-08-06T12:58:24;92787.00;;;22.00
41940;BMP180;23057;48.554;14.454;2023-08-06T13:00:55;92795.00;;;21.90
41940;BMP180;23057;48.554;14.454;2023-08-06T13:03:27;92795.00;;;21.80
41940;BMP180;23057;48.554;14.454;2023-08-06T13:05:58;92792.00;;;21.70
41940;BMP180;23057;48.554;14.454;2023-08-06T13:08:29;92783.00;;;21.60
41940;BMP180;23057;48.554;14.454;2023-08-06T13:11:00;92783.00;;;21.60
41940;BMP180;23057;48.554;14.454;2023-08-06T13:13:31;92772.00;;;21.60
41940;BMP180;23057;48.554;14.454;2023-08-06T13:16:02;92777.00;;;21.60
41940;BMP180;23057;48.554;14.454;2023-08-06T13:18:33;92772.00;;;21.70
41940;BMP180;23057;48.554;14.454;2023-08-06T13:21:04;92773.00;;;21.80
41940;BMP180;23057;48.554;14.454;2023-08-06T13:23:35;92778.00;;;21.90
41940;BMP180;23057;48.554;14.454;2023-08-06T13:26:07;92779.00;;;21.90
41940;BMP180;23057;48.554;14.454;2023-08-06T13:28:38;92786.00;;;22.00
41940;BMP180;23057;48.554;14.454;2023-08-06T13:31:09;92791.00;;;22.10
41940;BMP180;23057;48.554;14.454;2023-08-06T13:33:40;92790.00;;;22.10
41940;BMP180;23057;48.554;14.454;2023-08-06T13:36:10;92788.00;;;22.10
41940;BMP180;23057;48.554;14.454;2023-08-06T13:38:41;92801.00;;;22.20
41940;BMP180;23057;48.554;14.454;2023-08-06T13:41:12;92810.00;;;22.30
41940;BMP180;23057;48.554;14.454;2023-08-06T13:43:43;92802.00;;;22.40
41940;BMP180;23057;48.554;14.454;2023-08-06T13:46:15;92809.00;;;22.30
41940;BMP180;23057;48.554;14.454;2023-08-06T13:48:50;92802.00;;;22.20
41940;BMP180;23057;48.554;14.454;2023-08-06T13:51:23;92813.00;;;22.00
41940;BMP180;23057;48.554;14.454;2023-08-06T13:53:54;92819.00;;;21.90
41940;BMP180;23057;48.554;14.454;2023-08-06T13:56:27;92822.00;;;21.70
41940;BMP180;23057;48.554;14.454;2023-08-06T13:58:59;92822.00;;;21.60
41940;BMP180;23057;48.554;14.454;2023-08-06T14:01:30;92823.00;;;21.60
41940;BMP180;23057;48.554;14.454;2023-08-06T14:04:01;92831.00;;;21.50
41940;BMP180;23057;48.554;14.454;2023-08-06T14:06:32;92830.00;;;21.40
41940;BMP180;23057;48.554;14.454;2023-08-06T14:09:03;92832.00;;;21.40
41940;BMP180;23057;48.554;14.454;2023-08-06T14:11:34;92839.00;;;21.30
41940;BMP180;23057;48.554;14.454;2023-08-06T14:14:05;92835.00;;;21.20
41940;BMP180;23057;48.554;14.454;2023-08-06T14:16:36;92852.00;;;21.10
41940;BMP180;23057;48.554;14.454;2023-08-06T14:19:07;92846.00;;;21.10
41940;BMP180;23057;48.554;14.454;2023-08-06T14:21:37;92849.00;;;21.10
41940;BMP180;23057;48.554;14.454;2023-08-06T14:24:08;92851.00;;;21.10
41940;BMP180;23057;48.554;14.454;2023-08-06T14:26:39;92847.00;;;21.10
41940;BMP180;23057;48.554;14.454;2023-08-06T14:29:10;92853.00;;;21.10
41940;BMP180;23057;48.554;14.454;2023-08-06T14:31:41;92857.00;;;21.10
41940;BMP180;23057;48.554;14.454;2023-08-06T14:34:12;92857.00;;;21.10